Arock, Oregon
Current Conditions -  °F | °C
As of 6:15 PM on Saturday 25 Oct 2014 (Local Time) from KEUL Reporting Station
Few Clouds Few Clouds  
Wind Chill: 59°   Ceiling: Unl
Heat Index: 59°   Visibility: 10mi
Dew Point: 46°   Wind: 8mph
Humidity: 63%   Direction: 290°WNW
Pressure: 29.78"   Gusts: NA
Location:  42.91°N, 117.53°W
Report Text: KEUL 260015Z AUTO 29007KT 10SM FEW120 15/08 A2978 RMK AO1
Loading
Personal Weather Stations






























Interactive Weather Map
Tropical Storm Tracking
New forecast layout! Learn more

10-Day Weather Forecast

Advertisements
Track Severe Weather on mobile